createdAt,value
2022-08-27T00:00:54.699Z,97634.59
2022-08-27T00:03:24.281Z,97633.50
2022-08-27T00:05:53.743Z,97639.59
2022-08-27T00:08:23.337Z,97635.88
2022-08-27T00:10:52.815Z,97637.81
2022-08-27T00:13:21.956Z,97644.63
2022-08-27T00:15:51.064Z,97637.56
2022-08-27T00:18:22.689Z,97636.47
2022-08-27T00:20:52.797Z,97637.28
2022-08-27T00:23:21.937Z,97636.72
2022-08-27T00:25:50.933Z,97637.56
2022-08-27T00:28:20.422Z,97642.81
2022-08-27T00:30:49.555Z,97641.88
2022-08-27T00:33:18.870Z,97640.56
2022-08-27T00:35:47.979Z,97644.03
2022-08-27T00:38:18.537Z,97640.38
2022-08-27T00:40:48.304Z,97639.13
2022-08-27T00:43:28.161Z,97640.69
2022-08-27T00:46:08.470Z,97652.19
2022-08-27T00:48:38.460Z,97647.19
2022-08-27T00:51:08.143Z,97639.50
2022-08-27T00:53:37.597Z,97652.44
2022-08-27T00:56:16.948Z,97657.22
2022-08-27T00:58:52.734Z,97653.88
2022-08-27T01:01:30.459Z,97650.00
2022-08-27T01:04:04.158Z,97660.00
2022-08-27T01:06:37.957Z,97662.03
2022-08-27T01:09:15.799Z,97671.91
2022-08-27T01:11:46.594Z,97681.19
2022-08-27T01:14:17.330Z,97684.97
2022-08-27T01:16:52.276Z,97686.84
2022-08-27T01:19:30.147Z,97680.22
2022-08-27T01:22:08.836Z,97676.25
2022-08-27T01:24:51.313Z,97682.50
2022-08-27T01:27:26.260Z,97682.38
2022-08-27T01:29:56.255Z,97685.13
2022-08-27T01:32:30.123Z,97677.34
2022-08-27T01:34:59.995Z,97686.34
2022-08-27T01:37:30.590Z,97686.75
2022-08-27T01:40:00.295Z,97689.38
2022-08-27T01:42:33.644Z,97691.03
2022-08-27T01:45:14.867Z,97698.91
2022-08-27T01:47:44.779Z,97691.94
2022-08-27T01:50:19.044Z,97691.44
2022-08-27T01:52:48.698Z,97693.03
2022-08-27T01:55:20.481Z,97706.16
2022-08-27T01:57:49.879Z,97708.28
2022-08-27T02:00:46.144Z,97713.97
2022-08-27T02:03:19.556Z,97718.66
2022-08-27T02:05:50.036Z,97718.41
2022-08-27T02:08:20.850Z,97713.72
2022-08-27T02:10:51.127Z,97716.47
2022-08-27T02:13:20.550Z,97726.91
2022-08-27T02:15:49.965Z,97722.00
2022-08-27T02:18:19.602Z,97726.47
2022-08-27T02:20:49.959Z,97725.41
2022-08-27T02:23:19.810Z,97727.28
2022-08-27T02:25:48.972Z,97727.28
2022-08-27T02:28:21.062Z,97724.38
2022-08-27T02:30:50.859Z,97735.56
2022-08-27T02:33:19.826Z,97738.53
2022-08-27T02:35:48.991Z,97735.03
2022-08-27T02:38:18.238Z,97743.19
2022-08-27T02:40:47.360Z,97737.81
2022-08-27T02:43:16.589Z,97747.59
2022-08-27T02:45:54.856Z,97747.34
2022-08-27T02:48:26.213Z,97746.69
2022-08-27T02:50:56.167Z,97746.53
2022-08-27T02:53:25.370Z,97742.94
2022-08-27T02:55:54.561Z,97749.31
2022-08-27T02:58:23.733Z,97748.25
2022-08-27T03:00:52.820Z,97752.72
2022-08-27T03:03:22.319Z,97759.66
2022-08-27T03:05:51.671Z,97759.13
2022-08-27T03:08:20.886Z,97758.34
2022-08-27T03:10:50.127Z,97762.16
2022-08-27T03:13:19.950Z,97762.88
2022-08-27T03:15:49.835Z,97764.53
2022-08-27T03:18:20.968Z,97762.59
2022-08-27T03:20:58.044Z,97764.69
2022-08-27T03:23:30.994Z,97766.50
2022-08-27T03:26:03.162Z,97771.13
2022-08-27T03:28:35.682Z,97765.44
2022-08-27T03:31:10.401Z,97765.28
2022-08-27T03:33:42.509Z,97770.56
2022-08-27T03:36:12.349Z,97766.81
2022-08-27T03:38:41.738Z,97766.81
2022-08-27T03:41:11.080Z,97771.97
2022-08-27T03:43:40.150Z,97765.78
2022-08-27T03:46:10.177Z,97778.28
2022-08-27T03:48:39.491Z,97779.56
2022-08-27T03:51:11.840Z,97784.00
2022-08-27T03:53:48.337Z,97780.81
2022-08-27T03:56:17.617Z,97783.28
2022-08-27T03:58:46.888Z,97788.44
2022-08-27T04:01:16.591Z,97786.66
2022-08-27T04:03:45.790Z,97783.44
2022-08-27T04:06:14.745Z,97787.91
2022-08-27T04:08:44.029Z,97788.06
2022-08-27T04:11:13.475Z,97790.97
2022-08-27T04:13:42.519Z,97796.13
2022-08-27T04:16:12.654Z,97789.69
2022-08-27T04:18:42.271Z,97793.75
2022-08-27T04:21:14.352Z,97787.97
2022-08-27T04:23:44.260Z,97792.69
2022-08-27T04:26:16.751Z,97803.84
2022-08-27T04:28:48.865Z,97797.44
2022-08-27T04:31:19.003Z,97799.84
2022-08-27T04:33:51.326Z,97797.44
2022-08-27T04:36:21.016Z,97796.44
2022-08-27T04:38:51.128Z,97799.25
2022-08-27T04:41:24.709Z,97798.56
2022-08-27T04:43:57.567Z,97806.66
2022-08-27T04:46:30.608Z,97804.81
2022-08-27T04:49:01.216Z,97811.25
2022-08-27T04:51:31.902Z,97807.09
2022-08-27T04:54:03.545Z,97803.97
2022-08-27T04:56:33.512Z,97807.09
2022-08-27T04:59:05.191Z,97807.88
2022-08-27T05:01:35.048Z,97800.03
2022-08-27T05:04:04.871Z,97788.06
2022-08-27T05:06:34.996Z,97803.78
2022-08-27T05:09:05.196Z,97798.91
2022-08-27T05:11:36.198Z,97797.78
2022-08-27T05:14:07.719Z,97799.38
2022-08-27T05:16:38.491Z,97801.75
2022-08-27T05:19:16.387Z,97801.53
2022-08-27T05:21:49.138Z,97806.56
2022-08-27T05:24:20.056Z,97802.09
2022-08-27T05:26:50.045Z,97800.50
2022-08-27T05:29:19.733Z,97806.53
2022-08-27T05:31:49.037Z,97804.19
2022-08-27T05:34:22.075Z,97812.25
2022-08-27T05:36:54.736Z,97800.53
2022-08-27T05:39:24.014Z,97809.72
2022-08-27T05:41:54.140Z,97806.09
2022-08-27T05:44:41.413Z,97810.63
2022-08-27T05:47:11.784Z,97808.69
2022-08-27T05:49:41.024Z,97810.25
2022-08-27T05:52:12.800Z,97807.38
2022-08-27T05:54:44.981Z,97801.41
2022-08-27T05:57:14.303Z,97804.06
2022-08-27T06:00:01.628Z,97796.75
2022-08-27T06:02:41.148Z,97793.56
2022-08-27T06:05:10.423Z,97788.47
2022-08-27T06:07:39.489Z,97793.84
2022-08-27T06:10:10.033Z,97790.28
2022-08-27T06:12:39.566Z,97795.53
2022-08-27T06:15:09.616Z,97793.88
2022-08-27T06:17:38.860Z,97799.19
2022-08-27T06:20:08.432Z,97794.03
2022-08-27T06:22:38.418Z,97800.78
2022-08-27T06:25:08.396Z,97791.38
2022-08-27T06:27:37.469Z,97786.47
2022-08-27T06:30:07.104Z,97796.63
2022-08-27T06:32:36.388Z,97795.47
2022-08-27T06:35:05.952Z,97795.28
2022-08-27T06:37:35.196Z,97794.28
2022-08-27T06:40:04.594Z,97792.53
2022-08-27T06:42:33.585Z,97791.31
2022-08-27T06:45:04.377Z,97785.13
2022-08-27T06:47:34.282Z,97785.56
2022-08-27T06:50:04.179Z,97791.53
2022-08-27T06:52:33.399Z,97789.69
2022-08-27T06:55:02.355Z,97781.69
2022-08-27T06:57:31.837Z,97782.34
2022-08-27T07:00:01.450Z,97780.00
2022-08-27T07:02:31.555Z,97778.50
2022-08-27T07:05:01.387Z,97774.28
2022-08-27T07:07:35.560Z,97771.28
2022-08-27T07:10:06.855Z,97770.47
2022-08-27T07:12:36.106Z,97774.44
2022-08-27T07:15:06.409Z,97773.75
2022-08-27T07:17:35.501Z,97771.63
2022-08-27T07:20:07.054Z,97777.53
2022-08-27T07:22:36.158Z,97773.94
2022-08-27T07:25:05.449Z,97765.31
2022-08-27T07:27:35.734Z,97770.00
2022-08-27T07:30:07.418Z,97766.19
2022-08-27T07:32:36.924Z,97761.56
2022-08-27T07:35:10.543Z,97762.94
2022-08-27T07:37:41.315Z,97763.16
2022-08-27T07:40:17.210Z,97759.00
2022-08-27T07:43:04.943Z,97760.91
2022-08-27T07:45:34.091Z,97769.53
2022-08-27T07:48:03.214Z,97753.28
2022-08-27T07:50:35.133Z,97755.16
2022-08-27T07:53:04.306Z,97756.19
2022-08-27T07:55:33.672Z,97750.81
2022-08-27T07:58:03.683Z,97748.63
2022-08-27T08:00:35.521Z,97741.91
2022-08-27T08:03:07.206Z,97736.03
2022-08-27T08:05:36.565Z,97737.13
2022-08-27T08:08:06.195Z,97731.03
2022-08-27T08:10:38.448Z,97735.28
2022-08-27T08:13:08.266Z,97731.31
2022-08-27T08:15:40.928Z,97733.44
2022-08-27T08:18:10.902Z,97731.78
2022-08-27T08:20:57.511Z,97721.56
2022-08-27T08:23:29.508Z,97712.25
2022-08-27T08:25:59.599Z,97716.28
2022-08-27T08:28:31.435Z,97712.41
2022-08-27T08:31:01.123Z,97701.94
2022-08-27T08:33:32.653Z,97704.78
2022-08-27T08:36:07.528Z,97707.84
2022-08-27T08:38:37.345Z,97694.69
2022-08-27T08:41:20.444Z,97707.84
2022-08-27T08:43:53.415Z,97697.53
2022-08-27T08:46:42.471Z,97690.69
2022-08-27T08:49:33.714Z,97689.19
2022-08-27T08:52:31.650Z,97678.22
2022-08-27T08:55:15.049Z,97683.38
2022-08-27T08:57:55.141Z,97672.69
2022-08-27T09:00:25.485Z,97661.91
2022-08-27T09:02:56.190Z,97651.56
2022-08-27T09:05:27.715Z,97656.41
2022-08-27T09:08:21.254Z,97645.91
2022-08-27T09:10:58.938Z,97644.25
2022-08-27T09:13:56.771Z,97634.28
2022-08-27T09:16:26.150Z,97637.78
2022-08-27T09:18:55.927Z,97626.25
2022-08-27T09:22:07.637Z,97624.97
2022-08-27T09:24:53.741Z,97624.47
2022-08-27T09:27:27.420Z,97629.34
2022-08-27T09:29:58.029Z,97624.31
2022-08-27T09:32:35.199Z,97623.00
2022-08-27T09:35:08.042Z,97614.53
2022-08-27T09:37:53.128Z,97616.34
2022-08-27T09:40:33.331Z,97616.66
2022-08-27T09:43:18.654Z,97619.66
2022-08-27T09:45:54.868Z,97612.16
2022-08-27T09:48:31.575Z,97607.47
2022-08-27T09:51:09.795Z,97593.03
2022-08-27T09:54:07.657Z,97588.69
2022-08-27T09:56:43.297Z,97596.50
2022-08-27T09:59:23.325Z,97587.22
2022-08-27T10:01:54.128Z,97585.06
2022-08-27T10:04:50.353Z,97582.03
2022-08-27T10:07:53.561Z,97580.41
2022-08-27T10:10:54.789Z,97576.06
2022-08-27T10:13:48.670Z,97565.56
2022-08-27T10:16:56.117Z,97567.44
2022-08-27T10:19:48.153Z,97557.44
2022-08-27T10:22:29.163Z,97566.06
2022-08-27T10:25:40.581Z,97551.78
2022-08-27T10:28:15.510Z,97551.41
2022-08-27T10:31:03.748Z,97545.81
2022-08-27T10:33:47.695Z,97548.19
2022-08-27T10:36:47.112Z,97544.72
2022-08-27T10:39:22.651Z,97548.00
2022-08-27T10:42:01.123Z,97546.88
2022-08-27T10:44:54.094Z,97541.28
2022-08-27T10:47:56.044Z,97538.75
2022-08-27T10:51:03.890Z,97535.78
2022-08-27T10:53:50.934Z,97529.38
2022-08-27T10:56:41.850Z,97525.88
2022-08-27T10:59:33.366Z,97526.69
2022-08-27T11:02:12.081Z,97523.38
2022-08-27T11:04:50.933Z,97523.22
2022-08-27T11:07:27.262Z,97514.59
2022-08-27T11:10:05.692Z,97516.59
2022-08-27T11:12:43.758Z,97519.88
2022-08-27T11:15:34.219Z,97509.28
2022-08-27T11:18:28.410Z,97509.47
2022-08-27T11:21:21.253Z,97507.44
2022-08-27T11:23:57.374Z,97506.78
2022-08-27T11:26:26.856Z,97510.09
2022-08-27T11:29:24.772Z,97507.94
2022-08-27T11:32:25.068Z,97501.78
2022-08-27T11:35:02.205Z,97498.97
2022-08-27T11:37:43.620Z,97484.97
2022-08-27T11:40:29.800Z,97488.63
2022-08-27T11:43:15.064Z,97491.28
2022-08-27T11:45:59.323Z,97495.25
2022-08-27T11:48:32.060Z,97487.78
2022-08-27T11:51:08.052Z,97490.94
2022-08-27T11:53:52.549Z,97485.63
2022-08-27T11:56:31.268Z,97489.59
2022-08-27T11:59:29.742Z,97489.75
2022-08-27T12:02:13.718Z,97492.19
2022-08-27T12:04:44.048Z,97490.88
2022-08-27T12:07:18.593Z,97486.22
2022-08-27T12:09:59.191Z,97488.88
2022-08-27T12:12:46.200Z,97488.88
2022-08-27T12:15:39.641Z,97488.75
2022-08-27T12:18:11.684Z,97484.53
2022-08-27T12:20:54.413Z,97492.38
2022-08-27T12:23:48.054Z,97492.88
2022-08-27T12:26:35.731Z,97490.28
2022-08-27T12:29:27.787Z,97489.59
2022-08-27T12:32:17.409Z,97495.91
2022-08-27T12:34:57.786Z,97492.38
2022-08-27T12:37:30.316Z,97491.41
2022-08-27T12:40:04.916Z,97491.22
2022-08-27T12:42:34.317Z,97495.34
2022-08-27T12:45:03.392Z,97492.84
2022-08-27T12:47:42.866Z,97493.31
2022-08-27T12:50:34.139Z,97501.19
2022-08-27T12:53:32.227Z,97505.13
2022-08-27T12:56:34.276Z,97499.00
2022-08-27T12:59:55.467Z,97500.44
2022-08-27T13:02:42.904Z,97499.09
2022-08-27T13:05:13.397Z,97500.97
2022-08-27T13:07:45.941Z,97500.00
2022-08-27T13:10:34.592Z,97506.09
2022-08-27T13:13:10.952Z,97516.84
2022-08-27T13:15:50.409Z,97512.88
2022-08-27T13:18:21.445Z,97506.28
2022-08-27T13:21:01.547Z,97512.78
2022-08-27T13:23:32.283Z,97513.34
2022-08-27T13:26:13.123Z,97508.41
2022-08-27T13:28:44.118Z,97510.69
2022-08-27T13:31:14.025Z,97504.66
2022-08-27T13:33:43.950Z,97504.13
2022-08-27T13:36:13.564Z,97517.66
2022-08-27T13:38:50.089Z,97510.44
2022-08-27T13:41:24.235Z,97510.16
2022-08-27T13:43:58.549Z,97514.19
2022-08-27T13:46:32.583Z,97514.25
2022-08-27T13:49:02.366Z,97530.69
2022-08-27T13:51:35.843Z,97524.09
2022-08-27T13:54:14.692Z,97525.94
2022-08-27T13:56:50.373Z,97525.75
2022-08-27T13:59:22.451Z,97526.50
2022-08-27T14:02:13.417Z,97526.59
2022-08-27T14:04:50.407Z,97526.34
2022-08-27T14:07:24.875Z,97522.94
2022-08-27T14:10:04.242Z,97530.91
2022-08-27T14:12:39.973Z,97527.59
2022-08-27T14:15:23.359Z,97537.34
2022-08-27T14:17:53.309Z,97530.47
2022-08-27T14:20:22.770Z,97534.38
2022-08-27T14:22:52.221Z,97545.59
2022-08-27T14:25:22.831Z,97541.56
2022-08-27T14:27:54.758Z,97546.59
2022-08-27T14:30:30.030Z,97545.53
2022-08-27T14:33:03.604Z,97550.59
2022-08-27T14:35:35.546Z,97545.22
2022-08-27T14:38:19.720Z,97541.13
2022-08-27T14:40:51.541Z,97546.84
2022-08-27T14:43:21.512Z,97545.66
2022-08-27T14:45:53.593Z,97554.31
2022-08-27T14:48:34.661Z,97565.81
2022-08-27T14:51:13.540Z,97564.13
2022-08-27T14:53:42.772Z,97573.88
2022-08-27T14:56:11.765Z,97569.00
2022-08-27T14:58:41.111Z,97574.72
2022-08-27T15:01:11.187Z,97570.94
2022-08-27T15:03:45.651Z,97571.91
2022-08-27T15:06:16.024Z,97575.53
2022-08-27T15:08:46.200Z,97580.88
2022-08-27T15:11:22.168Z,97577.47
2022-08-27T15:13:53.854Z,97578.09
2022-08-27T15:16:39.631Z,97578.88
2022-08-27T15:19:12.030Z,97579.75
2022-08-27T15:21:42.215Z,97594.88
2022-08-27T15:24:25.767Z,97586.13
2022-08-27T15:26:59.028Z,97589.50
2022-08-27T15:29:29.103Z,97590.34
2022-08-27T15:31:59.203Z,97586.03
2022-08-27T15:34:28.284Z,97597.56
2022-08-27T15:36:58.350Z,97597.91
2022-08-27T15:39:27.461Z,97596.50
2022-08-27T15:42:06.453Z,97600.47
2022-08-27T15:44:37.896Z,97596.13
2022-08-27T15:47:07.365Z,97600.06
2022-08-27T15:49:36.324Z,97606.19
2022-08-27T15:52:06.666Z,97609.66
2022-08-27T15:54:35.999Z,97617.06
2022-08-27T15:57:06.829Z,97602.81
2022-08-27T15:59:36.517Z,97610.16
2022-08-27T16:02:08.930Z,97605.28
2022-08-27T16:04:38.006Z,97608.97
2022-08-27T16:07:07.277Z,97609.25
2022-08-27T16:09:36.581Z,97612.91
2022-08-27T16:12:05.792Z,97620.84
2022-08-27T16:14:35.346Z,97624.19
2022-08-27T16:17:04.969Z,97614.47
2022-08-27T16:19:39.432Z,97611.97
2022-08-27T16:22:09.389Z,97614.78
2022-08-27T16:24:38.464Z,97612.66
2022-08-27T16:27:07.596Z,97615.56
2022-08-27T16:29:36.753Z,97622.13
2022-08-27T16:32:06.433Z,97618.94
2022-08-27T16:34:37.617Z,97625.34
2022-08-27T16:37:06.805Z,97627.47
2022-08-27T16:39:40.092Z,97636.53
2022-08-27T16:42:11.867Z,97624.94
2022-08-27T16:44:41.348Z,97624.25
2022-08-27T16:47:10.630Z,97617.28
2022-08-27T16:50:02.534Z,97617.16
2022-08-27T16:52:31.715Z,97617.84
2022-08-27T16:55:01.493Z,97624.81
2022-08-27T16:57:30.496Z,97615.50
2022-08-27T16:59:59.599Z,97614.66
2022-08-27T17:02:36.015Z,97607.84
2022-08-27T17:05:30.761Z,97618.13
2022-08-27T17:07:55.092Z,97621.19
2022-08-27T17:10:24.375Z,97620.50
2022-08-27T17:12:53.565Z,97628.19
2022-08-27T17:15:23.151Z,97615.50
2022-08-27T17:17:52.281Z,97613.81
2022-08-27T17:20:21.256Z,97614.00
2022-08-27T17:22:50.719Z,97624.59
2022-08-27T17:25:20.050Z,97615.38
2022-08-27T17:27:49.174Z,97619.59
2022-08-27T17:30:22.085Z,97614.31
2022-08-27T17:32:51.850Z,97612.34
2022-08-27T17:35:21.136Z,97612.19
2022-08-27T17:37:50.173Z,97611.41
2022-08-27T17:40:19.337Z,97606.25
2022-08-27T17:42:48.548Z,97614.03
2022-08-27T17:45:18.466Z,97611.25
2022-08-27T17:47:47.759Z,97605.09
2022-08-27T17:50:17.311Z,97612.38
2022-08-27T17:52:46.684Z,97617.41
2022-08-27T17:55:16.313Z,97616.84
2022-08-27T17:57:45.729Z,97620.72
2022-08-27T18:00:16.116Z,97616.25
2022-08-27T18:02:48.396Z,97622.53
2022-08-27T18:05:20.094Z,97617.78
2022-08-27T18:07:49.520Z,97618.34
2022-08-27T18:10:24.112Z,97627.09
2022-08-27T18:12:56.340Z,97621.00
2022-08-27T18:15:35.077Z,97621.81
2022-08-27T18:18:05.261Z,97620.72
2022-08-27T18:20:36.922Z,97615.72
2022-08-27T18:23:10.255Z,97611.41
2022-08-27T18:25:40.976Z,97623.66
2022-08-27T18:28:12.935Z,97611.56
2022-08-27T18:30:45.008Z,97612.81
2022-08-27T18:33:15.203Z,97614.50
2022-08-27T18:35:45.304Z,97616.44
2022-08-27T18:38:14.501Z,97612.41
2022-08-27T18:40:47.546Z,97611.16
2022-08-27T18:43:19.461Z,97610.72
2022-08-27T18:45:49.332Z,97600.44
2022-08-27T18:48:23.171Z,97600.69
2022-08-27T18:50:59.825Z,97598.78
2022-08-27T18:53:32.040Z,97605.00
2022-08-27T18:56:02.089Z,97599.31
2022-08-27T18:58:31.492Z,97608.22
2022-08-27T19:01:04.507Z,97609.50
2022-08-27T19:03:43.266Z,97610.47
2022-08-27T19:06:13.425Z,97613.78
2022-08-27T19:08:43.345Z,97608.78
2022-08-27T19:11:12.533Z,97614.34
2022-08-27T19:13:42.918Z,97611.31
2022-08-27T19:16:22.779Z,97610.28
2022-08-27T19:18:52.987Z,97602.81
2022-08-27T19:21:22.140Z,97609.34
2022-08-27T19:23:53.687Z,97607.66
2022-08-27T19:26:26.874Z,97600.72
2022-08-27T19:28:55.970Z,97610.19
2022-08-27T19:31:25.747Z,97601.28
2022-08-27T19:33:55.441Z,97612.16
2022-08-27T19:36:25.991Z,97608.94
2022-08-27T19:38:57.904Z,97602.09
2022-08-27T19:41:28.049Z,97608.69
2022-08-27T19:43:57.809Z,97594.47
2022-08-27T19:46:27.832Z,97599.06
2022-08-27T19:48:58.797Z,97592.94
2022-08-27T19:51:27.895Z,97593.34
2022-08-27T19:53:56.757Z,97595.03
2022-08-27T19:56:26.306Z,97602.13
2022-08-27T19:58:58.122Z,97597.38
2022-08-27T20:01:30.790Z,97593.50
2022-08-27T20:03:59.882Z,97588.06
2022-08-27T20:06:30.437Z,97592.94
2022-08-27T20:09:06.566Z,97590.44
2022-08-27T20:11:35.937Z,97588.78
2022-08-27T20:14:05.023Z,97583.50
2022-08-27T20:16:40.300Z,97579.06
2022-08-27T20:19:10.269Z,97578.22
2022-08-27T20:21:40.351Z,97578.50
2022-08-27T20:24:10.091Z,97581.13
2022-08-27T20:26:40.013Z,97583.50
2022-08-27T20:29:10.125Z,97580.59
2022-08-27T20:31:40.625Z,97574.19
2022-08-27T20:34:10.009Z,97573.50
2022-08-27T20:36:39.116Z,97574.19
2022-08-27T20:39:08.727Z,97576.53
2022-08-27T20:41:37.866Z,97572.94
2022-08-27T20:44:09.592Z,97570.28
2022-08-27T20:46:38.694Z,97577.38
2022-08-27T20:49:08.919Z,97568.34
2022-08-27T20:52:02.421Z,97577.09
2022-08-27T20:54:27.714Z,97574.59
2022-08-27T20:56:56.855Z,97572.94
2022-08-27T20:59:44.395Z,97569.88
2022-08-27T21:02:15.897Z,97575.69
2022-08-27T21:04:48.005Z,97568.88
2022-08-27T21:07:18.849Z,97564.84
2022-08-27T21:09:56.396Z,97557.19
2022-08-27T21:12:28.356Z,97566.81
2022-08-27T21:14:58.225Z,97561.53
2022-08-27T21:17:28.927Z,97565.56
2022-08-27T21:19:58.744Z,97561.25
2022-08-27T21:22:28.563Z,97556.81
2022-08-27T21:24:58.128Z,97562.88
2022-08-27T21:27:27.352Z,97552.75
2022-08-27T21:29:56.339Z,97560.41
2022-08-27T21:32:25.480Z,97562.22
2022-08-27T21:34:54.641Z,97557.91
2022-08-27T21:37:23.604Z,97553.72
2022-08-27T21:39:53.306Z,97553.03
2022-08-27T21:42:23.197Z,97552.47
2022-08-27T21:44:52.240Z,97563.88
2022-08-27T21:47:22.035Z,97557.88
2022-08-27T21:49:51.313Z,97553.03
2022-08-27T21:52:20.891Z,97556.06
2022-08-27T21:54:49.972Z,97556.22
2022-08-27T21:57:18.942Z,97552.03
2022-08-27T21:59:50.086Z,97547.03
2022-08-27T22:02:39.351Z,97550.66
2022-08-27T22:05:10.481Z,97545.38
2022-08-27T22:07:39.544Z,97537.31
2022-08-27T22:10:09.036Z,97537.88
2022-08-27T22:12:38.278Z,97535.91
2022-08-27T22:15:09.956Z,97539.94
2022-08-27T22:17:39.105Z,97542.59
2022-08-27T22:20:10.450Z,97537.31
2022-08-27T22:22:40.667Z,97537.72
2022-08-27T22:25:10.023Z,97536.91
2022-08-27T22:27:39.517Z,97539.53
2022-08-27T22:30:11.367Z,97542.31
2022-08-27T22:32:40.696Z,97540.50
2022-08-27T22:35:11.307Z,97537.47
2022-08-27T22:37:40.804Z,97540.78
2022-08-27T22:40:19.977Z,97536.34
2022-08-27T22:42:51.047Z,97531.47
2022-08-27T22:45:21.779Z,97542.59
2022-08-27T22:47:50.832Z,97541.34
2022-08-27T22:50:20.043Z,97545.09
2022-08-27T22:52:50.239Z,97538.41
2022-08-27T22:55:22.966Z,97540.91
2022-08-27T22:57:54.995Z,97535.50
2022-08-27T23:00:28.980Z,97535.06
2022-08-27T23:02:58.416Z,97533.69
2022-08-27T23:05:28.485Z,97533.53
2022-08-27T23:08:10.314Z,97525.78
2022-08-27T23:10:40.049Z,97532.19
2022-08-27T23:13:10.882Z,97525.63
2022-08-27T23:15:40.215Z,97523.97
2022-08-27T23:18:09.305Z,97527.03
2022-08-27T23:20:39.200Z,97530.34
2022-08-27T23:23:09.029Z,97529.50
2022-08-27T23:25:56.492Z,97532.41
2022-08-27T23:28:25.813Z,97530.06
2022-08-27T23:30:55.988Z,97528.66
2022-08-27T23:33:25.173Z,97532.13
2022-08-27T23:35:54.207Z,97531.41
2022-08-27T23:38:23.732Z,97529.75
2022-08-27T23:40:53.360Z,97530.00
2022-08-27T23:43:22.670Z,97526.13
2022-08-27T23:45:53.045Z,97528.09
2022-08-27T23:48:22.275Z,97538.09
2022-08-27T23:50:51.532Z,97530.56
2022-08-27T23:53:20.463Z,97534.31
2022-08-27T23:55:49.542Z,97532.78
2022-08-27T23:58:18.807Z,97541.00
